Аэропорт: Гянджа. Гянджа

ICAO: UBBG

METAR:
2020-08-13 10:30:00
UBBG 131030Z 32010KT 270V350 9999 FEW040 BKN100 28/16 Q1009 R30/CLRD// NOSIG
METAR:
2020-08-13 05:00:00
TAF UBBG 130500Z 1306/1406 VRB04KT 9999 FEW050 BKN080 TX29/1312Z TN21/1402Z TEMPO 1306/1308 31008KT BECMG 1308/1310 08012KT FEW035CB BKN070 TEMPO 1313/1318 -TSRA SCT030CB OVC060 BECMG 1320/1322 27008KT BKN080